createdAt,value
2023-02-23T00:02:22.125Z,1.11
2023-02-23T00:04:51.593Z,1.13
2023-02-23T00:07:20.997Z,1.17
2023-02-23T00:09:51.300Z,1.19
2023-02-23T00:12:21.126Z,1.21
2023-02-23T00:14:51.137Z,1.20
2023-02-23T00:17:20.656Z,1.19
2023-02-23T00:19:49.686Z,1.19
2023-02-23T00:22:19.012Z,1.15
2023-02-23T00:24:48.757Z,1.16
2023-02-23T00:27:21.736Z,1.17
2023-02-23T00:29:52.479Z,1.18
2023-02-23T00:32:24.815Z,1.20
2023-02-23T00:34:54.402Z,1.21
2023-02-23T00:37:25.093Z,1.22
2023-02-23T00:39:57.677Z,1.22
2023-02-23T00:42:33.213Z,1.24
2023-02-23T00:45:09.779Z,1.25
2023-02-23T00:47:43.093Z,1.25
2023-02-23T00:50:18.600Z,1.24
2023-02-23T00:52:50.092Z,1.23
2023-02-23T00:55:20.143Z,1.23
2023-02-23T00:57:50.958Z,1.23
2023-02-23T01:00:21.245Z,1.22
2023-02-23T01:02:50.751Z,1.20
2023-02-23T01:05:23.092Z,1.19
2023-02-23T01:07:53.927Z,1.17
2023-02-23T01:10:25.832Z,1.16
2023-02-23T01:12:56.119Z,1.15
2023-02-23T01:15:27.062Z,1.14
2023-02-23T01:17:57.708Z,1.12
2023-02-23T01:20:29.062Z,1.12
2023-02-23T01:22:59.124Z,1.09
2023-02-23T01:25:32.089Z,1.07
2023-02-23T01:28:04.086Z,1.05
2023-02-23T01:30:35.975Z,1.03
2023-02-23T01:33:07.127Z,0.99
2023-02-23T01:35:38.109Z,0.97
2023-02-23T01:38:08.898Z,0.93
2023-02-23T01:40:44.518Z,0.91
2023-02-23T01:43:17.876Z,0.89
2023-02-23T01:45:49.115Z,0.86
2023-02-23T01:48:32.684Z,0.82
2023-02-23T01:51:04.426Z,0.81
2023-02-23T01:53:38.604Z,0.80
2023-02-23T01:56:15.835Z,0.79
2023-02-23T01:58:53.452Z,0.80
2023-02-23T02:01:25.024Z,0.81
2023-02-23T02:04:02.106Z,0.82
2023-02-23T02:06:33.771Z,0.82
2023-02-23T02:09:18.458Z,0.82
2023-02-23T02:11:55.324Z,0.77
2023-02-23T02:14:30.264Z,0.72
2023-02-23T02:17:34.067Z,0.68
2023-02-23T02:20:39.246Z,0.64
2023-02-23T02:23:24.909Z,0.60
2023-02-23T02:26:44.519Z,0.58
2023-02-23T02:29:29.638Z,0.50
2023-02-23T02:32:30.824Z,0.46
2023-02-23T02:35:22.318Z,0.40
2023-02-23T02:38:17.514Z,0.37
2023-02-23T02:40:55.602Z,0.36
2023-02-23T02:44:04.856Z,0.34
2023-02-23T02:46:49.982Z,0.33
2023-02-23T02:49:33.971Z,0.31
2023-02-23T02:52:30.414Z,0.29
2023-02-23T02:55:13.092Z,0.28
2023-02-23T02:57:47.338Z,0.25
2023-02-23T03:00:41.641Z,0.23
2023-02-23T03:03:58.833Z,0.20
2023-02-23T03:06:56.693Z,0.18
2023-02-23T03:10:05.906Z,0.17
2023-02-23T03:13:27.690Z,0.17
2023-02-23T03:16:21.886Z,0.19
2023-02-23T03:19:13.348Z,0.20
2023-02-23T03:22:22.912Z,0.18
2023-02-23T03:25:21.011Z,0.16
2023-02-23T03:28:51.450Z,0.13
2023-02-23T03:32:04.202Z,0.09
2023-02-23T03:35:04.376Z,0.07
2023-02-23T03:38:05.226Z,0.06
2023-02-23T03:41:00.009Z,0.05
2023-02-23T03:44:06.905Z,0.04
2023-02-23T03:46:57.684Z,0.03
2023-02-23T03:49:52.990Z,0.03
2023-02-23T03:52:46.391Z,0.01
2023-02-23T03:55:50.182Z,-0.05
2023-02-23T03:58:48.868Z,-0.10
2023-02-23T04:01:40.064Z,-0.11
2023-02-23T04:04:30.685Z,-0.12
2023-02-23T04:07:22.307Z,-0.18
2023-02-23T04:10:11.453Z,-0.21
2023-02-23T04:13:13.615Z,-0.27
2023-02-23T04:15:56.337Z,-0.33
2023-02-23T04:18:35.185Z,-0.37
2023-02-23T04:21:06.704Z,-0.41
2023-02-23T04:23:40.944Z,-0.43
2023-02-23T04:26:10.939Z,-0.42
2023-02-23T04:28:39.719Z,-0.42
2023-02-23T04:31:09.870Z,-0.42
2023-02-23T04:33:41.765Z,-0.43
2023-02-23T04:36:11.310Z,-0.45
2023-02-23T04:38:41.560Z,-0.45
2023-02-23T04:41:16.301Z,-0.47
2023-02-23T04:43:47.778Z,-0.49
2023-02-23T04:46:17.209Z,-0.52
2023-02-23T04:48:46.325Z,-0.56
2023-02-23T04:51:16.401Z,-0.61
2023-02-23T04:53:46.050Z,-0.64
2023-02-23T04:56:16.159Z,-0.67
2023-02-23T04:58:45.824Z,-0.71
2023-02-23T05:01:15.216Z,-0.73
2023-02-23T05:03:44.463Z,-0.77
2023-02-23T05:06:13.966Z,-0.81
2023-02-23T05:08:42.865Z,-0.84
2023-02-23T05:11:13.182Z,-0.88
2023-02-23T05:13:43.502Z,-0.92
2023-02-23T05:16:14.112Z,-0.96
2023-02-23T05:18:43.824Z,-1.00
2023-02-23T05:21:12.778Z,-1.03
2023-02-23T05:23:41.528Z,-1.05
2023-02-23T05:26:12.575Z,-1.05
2023-02-23T05:28:42.511Z,-1.05
2023-02-23T05:31:12.706Z,-1.04
2023-02-23T05:33:46.045Z,-1.04
2023-02-23T05:36:17.436Z,-1.05
2023-02-23T05:38:46.625Z,-1.04
2023-02-23T05:41:16.495Z,-1.03
2023-02-23T05:43:45.601Z,-1.02
2023-02-23T05:46:18.612Z,-1.02
2023-02-23T05:48:47.332Z,-1.00
2023-02-23T05:51:17.443Z,-0.98
2023-02-23T05:53:47.336Z,-0.93
2023-02-23T05:56:21.128Z,-0.90
2023-02-23T05:58:50.521Z,-0.83
2023-02-23T06:01:20.082Z,-0.76
2023-02-23T06:03:49.041Z,-0.67
2023-02-23T06:06:18.077Z,-0.56
2023-02-23T06:08:46.632Z,-0.44
2023-02-23T06:11:15.141Z,-0.29
2023-02-23T06:13:43.562Z,-0.14
2023-02-23T06:16:12.208Z,0.02
2023-02-23T06:18:42.106Z,0.17
2023-02-23T06:21:10.925Z,0.34
2023-02-23T06:23:39.573Z,0.46
2023-02-23T06:26:08.964Z,0.61
2023-02-23T06:28:38.381Z,0.75
2023-02-23T06:31:07.262Z,0.83
2023-02-23T06:33:36.046Z,0.91
2023-02-23T06:36:05.067Z,1.02
2023-02-23T06:38:33.639Z,1.26
2023-02-23T06:41:06.816Z,1.49
2023-02-23T06:43:35.712Z,1.72
2023-02-23T06:46:04.437Z,1.94
2023-02-23T06:48:33.239Z,2.20
2023-02-23T06:51:01.763Z,2.43
2023-02-23T06:53:31.165Z,2.72
2023-02-23T06:56:00.357Z,2.93
2023-02-23T06:58:29.150Z,3.04
2023-02-23T07:00:58.957Z,3.16
2023-02-23T07:03:27.412Z,3.33
2023-02-23T07:05:55.717Z,3.54
2023-02-23T07:08:24.844Z,3.70
2023-02-23T07:10:53.193Z,3.97
2023-02-23T07:13:22.223Z,4.16
2023-02-23T07:15:51.162Z,4.23
2023-02-23T07:18:19.752Z,4.50
2023-02-23T07:20:48.128Z,4.83
2023-02-23T07:23:16.819Z,5.20
2023-02-23T07:25:45.761Z,5.38
2023-02-23T07:28:15.002Z,5.71
2023-02-23T07:30:43.811Z,6.02
2023-02-23T07:33:12.239Z,6.26
2023-02-23T07:35:40.758Z,6.66
2023-02-23T07:38:09.384Z,7.17
2023-02-23T07:40:37.750Z,7.49
2023-02-23T07:43:06.319Z,7.79
2023-02-23T07:45:34.767Z,8.07
2023-02-23T07:48:03.533Z,8.56
2023-02-23T07:50:32.571Z,8.70
2023-02-23T07:53:00.921Z,9.00
2023-02-23T07:55:29.243Z,9.43
2023-02-23T07:57:57.581Z,10.11
2023-02-23T08:00:27.589Z,10.64
2023-02-23T08:02:55.957Z,10.80
2023-02-23T08:05:26.621Z,10.75
2023-02-23T08:07:58.719Z,10.88
2023-02-23T08:10:27.340Z,11.16
2023-02-23T08:12:57.641Z,11.34
2023-02-23T08:15:26.302Z,11.91
2023-02-23T08:17:54.762Z,12.35
2023-02-23T08:20:23.249Z,12.43
2023-02-23T08:22:55.622Z,12.78
2023-02-23T08:25:24.706Z,12.87
2023-02-23T08:27:54.226Z,12.96
2023-02-23T08:30:23.828Z,13.60
2023-02-23T08:32:52.240Z,14.01
2023-02-23T08:35:20.708Z,13.57
2023-02-23T08:37:49.266Z,14.16
2023-02-23T08:40:19.106Z,14.65
2023-02-23T08:42:52.608Z,14.83
2023-02-23T08:45:21.101Z,15.37
2023-02-23T08:47:49.532Z,15.31
2023-02-23T08:50:18.069Z,15.05
2023-02-23T08:52:46.553Z,15.54
2023-02-23T08:55:17.024Z,16.16
2023-02-23T08:57:45.384Z,16.10
2023-02-23T09:00:16.913Z,16.16
2023-02-23T09:02:48.538Z,15.88
2023-02-23T09:05:17.784Z,16.05
2023-02-23T09:07:46.938Z,15.83
2023-02-23T09:10:16.675Z,16.75
2023-02-23T09:12:47.373Z,16.51
2023-02-23T09:15:15.822Z,16.60
2023-02-23T09:17:45.236Z,16.68
2023-02-23T09:20:16.276Z,17.00
2023-02-23T09:22:45.704Z,17.83
2023-02-23T09:25:19.429Z,18.03
2023-02-23T09:27:47.887Z,18.33
2023-02-23T09:30:20.737Z,18.90
2023-02-23T09:32:50.553Z,18.49
2023-02-23T09:35:20.464Z,17.85
2023-02-23T09:37:50.180Z,17.79
2023-02-23T09:40:22.165Z,18.58
2023-02-23T09:43:09.382Z,18.63
2023-02-23T09:45:48.203Z,17.81
2023-02-23T09:48:19.150Z,16.88
2023-02-23T09:50:55.820Z,17.65
2023-02-23T09:53:36.871Z,18.38
2023-02-23T09:56:12.829Z,18.95
2023-02-23T09:58:41.411Z,18.91
2023-02-23T10:01:30.087Z,19.51
2023-02-23T10:04:02.338Z,20.35
2023-02-23T10:06:30.833Z,19.21
2023-02-23T10:09:19.652Z,20.05
2023-02-23T10:11:56.561Z,20.98
2023-02-23T10:14:45.129Z,21.10
2023-02-23T10:17:26.986Z,21.24
2023-02-23T10:20:08.268Z,20.36
2023-02-23T10:22:37.798Z,21.28
2023-02-23T10:25:10.326Z,21.13
2023-02-23T10:27:42.284Z,20.19
2023-02-23T10:30:24.445Z,19.33
2023-02-23T10:32:57.978Z,20.11
2023-02-23T10:35:28.765Z,20.84
2023-02-23T10:37:57.746Z,20.66
2023-02-23T10:40:28.975Z,20.81
2023-02-23T10:42:58.827Z,21.39
2023-02-23T10:45:28.547Z,21.12
2023-02-23T10:47:58.981Z,21.66
2023-02-23T10:50:29.278Z,21.99
2023-02-23T10:53:05.065Z,21.71
2023-02-23T10:55:33.466Z,21.69
2023-02-23T10:58:08.879Z,22.14
2023-02-23T11:00:41.195Z,22.42
2023-02-23T11:03:40.105Z,22.29
2023-02-23T11:06:28.989Z,22.18
2023-02-23T11:08:57.895Z,21.89
2023-02-23T11:11:29.002Z,22.22
2023-02-23T11:13:57.779Z,21.81
2023-02-23T11:16:30.590Z,21.78
2023-02-23T11:19:03.653Z,21.19
2023-02-23T11:21:38.742Z,20.78
2023-02-23T11:24:19.522Z,20.47
2023-02-23T11:26:49.064Z,20.32
2023-02-23T11:29:35.628Z,20.63
2023-02-23T11:32:10.301Z,21.68
2023-02-23T11:34:41.230Z,21.99
2023-02-23T11:37:23.569Z,22.29
2023-02-23T11:39:59.944Z,22.18
2023-02-23T11:42:33.480Z,21.85
2023-02-23T11:45:07.173Z,21.91
2023-02-23T11:47:40.348Z,22.29
2023-02-23T11:50:20.402Z,22.60
2023-02-23T11:52:50.337Z,23.18
2023-02-23T11:55:20.565Z,22.66
2023-02-23T11:57:50.598Z,22.14
2023-02-23T12:00:37.327Z,22.05
2023-02-23T12:03:05.827Z,22.79
2023-02-23T12:05:34.274Z,22.54
2023-02-23T12:08:08.324Z,22.14
2023-02-23T12:10:44.380Z,21.78
2023-02-23T12:13:25.187Z,21.52
2023-02-23T12:15:57.202Z,21.31
2023-02-23T12:18:28.669Z,20.97
2023-02-23T12:21:01.593Z,20.52
2023-02-23T12:23:32.989Z,20.57
2023-02-23T12:26:05.327Z,20.46
2023-02-23T12:28:37.331Z,21.41
2023-02-23T12:31:24.705Z,21.49
2023-02-23T12:34:04.536Z,21.59
2023-02-23T12:36:39.442Z,21.19
2023-02-23T12:39:10.782Z,20.93
2023-02-23T12:41:43.537Z,21.08
2023-02-23T12:44:35.285Z,21.11
2023-02-23T12:47:21.824Z,21.14
2023-02-23T12:49:55.455Z,21.17
2023-02-23T12:52:31.212Z,20.86
2023-02-23T12:54:59.985Z,20.29
2023-02-23T12:57:48.661Z,19.93
2023-02-23T13:00:36.615Z,20.06
2023-02-23T13:03:10.599Z,19.43
2023-02-23T13:05:41.795Z,19.42
2023-02-23T13:08:26.048Z,19.52
2023-02-23T13:11:03.710Z,19.64
2023-02-23T13:13:41.197Z,19.81
2023-02-23T13:16:17.072Z,20.06
2023-02-23T13:18:47.905Z,19.95
2023-02-23T13:21:25.547Z,19.74
2023-02-23T13:24:02.731Z,19.44
2023-02-23T13:26:37.316Z,19.22
2023-02-23T13:29:08.449Z,19.29
2023-02-23T13:31:38.896Z,19.28
2023-02-23T13:34:12.863Z,19.12
2023-02-23T13:36:43.287Z,18.80
2023-02-23T13:39:32.480Z,18.32
2023-02-23T13:42:20.120Z,18.26
2023-02-23T13:45:06.963Z,18.05
2023-02-23T13:47:46.687Z,17.82
2023-02-23T13:50:15.023Z,17.63
2023-02-23T13:52:44.735Z,17.51
2023-02-23T13:55:34.655Z,17.60
2023-02-23T13:58:15.577Z,17.61
2023-02-23T14:00:44.182Z,17.69
2023-02-23T14:03:24.643Z,17.86
2023-02-23T14:05:56.922Z,18.01
2023-02-23T14:08:36.262Z,17.82
2023-02-23T14:11:05.488Z,17.48
2023-02-23T14:13:40.528Z,17.20
2023-02-23T14:16:09.249Z,17.11
2023-02-23T14:18:58.345Z,16.95
2023-02-23T14:21:56.752Z,16.67
2023-02-23T14:24:26.010Z,16.38
2023-02-23T14:27:13.719Z,16.19
2023-02-23T14:29:44.089Z,15.93
2023-02-23T14:32:15.389Z,15.83
2023-02-23T14:34:49.255Z,15.67
2023-02-23T14:37:25.442Z,15.46
2023-02-23T14:39:55.735Z,15.19
2023-02-23T14:42:26.016Z,14.81
2023-02-23T14:44:55.612Z,14.44
2023-02-23T14:47:26.449Z,14.14
2023-02-23T14:49:58.890Z,13.86
2023-02-23T14:52:28.945Z,13.65
2023-02-23T14:55:06.846Z,13.54
2023-02-23T14:57:36.686Z,13.38
2023-02-23T15:00:13.417Z,13.21
2023-02-23T15:02:54.381Z,12.93
2023-02-23T15:05:24.143Z,12.70
2023-02-23T15:07:54.369Z,12.53
2023-02-23T15:10:26.753Z,12.40
2023-02-23T15:12:56.214Z,12.24
2023-02-23T15:15:25.948Z,12.08
2023-02-23T15:17:56.660Z,11.98
2023-02-23T15:20:32.861Z,11.91
2023-02-23T15:23:02.947Z,11.78
2023-02-23T15:25:36.345Z,11.64
2023-02-23T15:28:12.293Z,11.49
2023-02-23T15:30:50.705Z,11.44
2023-02-23T15:33:23.819Z,11.42
2023-02-23T15:35:54.219Z,11.34
2023-02-23T15:38:42.368Z,11.27
2023-02-23T15:41:27.056Z,11.15
2023-02-23T15:44:03.031Z,11.05
2023-02-23T15:46:32.969Z,10.91
2023-02-23T15:49:03.801Z,10.80
2023-02-23T15:51:44.678Z,10.69
2023-02-23T15:54:19.456Z,10.58
2023-02-23T15:56:50.006Z,10.46
2023-02-23T15:59:24.136Z,10.38
2023-02-23T16:01:54.525Z,10.28
2023-02-23T16:04:26.222Z,10.19
2023-02-23T16:06:54.597Z,10.11
2023-02-23T16:09:26.039Z,10.05
2023-02-23T16:11:54.408Z,9.99
2023-02-23T16:14:23.905Z,9.93
2023-02-23T16:17:08.396Z,9.87
2023-02-23T16:19:42.025Z,9.80
2023-02-23T16:22:17.730Z,9.74
2023-02-23T16:24:49.357Z,9.71
2023-02-23T16:27:18.443Z,9.65
2023-02-23T16:29:47.006Z,9.60
2023-02-23T16:32:19.610Z,9.54
2023-02-23T16:34:49.903Z,9.48
2023-02-23T16:37:27.081Z,9.44
2023-02-23T16:39:56.406Z,9.39
2023-02-23T16:42:24.842Z,9.34
2023-02-23T16:44:53.215Z,9.29
2023-02-23T16:47:24.559Z,9.26
2023-02-23T16:49:53.290Z,9.21
2023-02-23T16:52:23.027Z,9.17
2023-02-23T16:54:55.305Z,9.10
2023-02-23T16:57:25.741Z,9.06
2023-02-23T16:59:55.092Z,8.99
2023-02-23T17:02:23.893Z,8.94
2023-02-23T17:04:53.118Z,8.86
2023-02-23T17:07:23.128Z,8.79
2023-02-23T17:09:52.509Z,8.72
2023-02-23T17:12:21.989Z,8.62
2023-02-23T17:14:50.767Z,8.55
2023-02-23T17:17:19.702Z,8.46
2023-02-23T17:19:48.060Z,8.38
2023-02-23T17:22:16.403Z,8.32
2023-02-23T17:24:44.839Z,8.27
2023-02-23T17:27:13.298Z,8.19
2023-02-23T17:29:41.826Z,8.15
2023-02-23T17:32:10.389Z,8.11
2023-02-23T17:34:38.941Z,8.10
2023-02-23T17:37:08.115Z,8.07
2023-02-23T17:39:37.724Z,8.04
2023-02-23T17:42:07.040Z,8.03
2023-02-23T17:44:35.321Z,8.00
2023-02-23T17:47:03.659Z,7.97
2023-02-23T17:49:31.991Z,7.94
2023-02-23T17:52:00.266Z,7.91
2023-02-23T17:54:29.154Z,7.88
2023-02-23T17:56:58.146Z,7.87
2023-02-23T17:59:26.400Z,7.83
2023-02-23T18:01:54.740Z,7.76
2023-02-23T18:04:23.082Z,7.73
2023-02-23T18:06:51.542Z,7.66
2023-02-23T18:09:19.818Z,7.61
2023-02-23T18:11:48.719Z,7.53
2023-02-23T18:14:18.441Z,7.46
2023-02-23T18:16:46.755Z,7.39
2023-02-23T18:19:15.147Z,7.33
2023-02-23T18:21:44.176Z,7.30
2023-02-23T18:24:14.052Z,7.26
2023-02-23T18:26:42.661Z,7.24
2023-02-23T18:29:10.991Z,7.21
2023-02-23T18:31:39.522Z,7.17
2023-02-23T18:34:09.076Z,7.12
2023-02-23T18:36:38.445Z,7.08
2023-02-23T18:39:08.661Z,7.03
2023-02-23T18:41:36.966Z,6.99
2023-02-23T18:44:06.814Z,6.96
2023-02-23T18:46:36.010Z,6.90
2023-02-23T18:49:06.245Z,6.85
2023-02-23T18:51:34.610Z,6.82
2023-02-23T18:54:05.356Z,6.77
2023-02-23T18:56:33.702Z,6.72
2023-02-23T18:59:02.063Z,6.69
2023-02-23T19:01:33.604Z,6.66
2023-02-23T19:04:02.880Z,6.61
2023-02-23T19:06:31.479Z,6.54
2023-02-23T19:09:00.456Z,6.48
2023-02-23T19:11:33.487Z,6.44
2023-02-23T19:14:03.978Z,6.38
2023-02-23T19:16:33.153Z,6.32
2023-02-23T19:19:02.631Z,6.26
2023-02-23T19:21:31.974Z,6.19
2023-02-23T19:24:02.692Z,6.12
2023-02-23T19:26:32.158Z,6.06
2023-02-23T19:29:00.664Z,5.99
2023-02-23T19:31:29.539Z,5.95
2023-02-23T19:33:58.581Z,5.88
2023-02-23T19:36:30.904Z,5.81
2023-02-23T19:39:06.327Z,5.74
2023-02-23T19:41:34.841Z,5.68
2023-02-23T19:44:03.353Z,5.62
2023-02-23T19:46:31.660Z,5.56
2023-02-23T19:49:00.374Z,5.52
2023-02-23T19:51:28.809Z,5.47
2023-02-23T19:53:58.516Z,5.42
2023-02-23T19:56:28.225Z,5.36
2023-02-23T19:58:57.398Z,5.28
2023-02-23T20:01:27.922Z,5.19
2023-02-23T20:04:02.042Z,5.11
2023-02-23T20:06:32.386Z,5.02
2023-02-23T20:09:01.780Z,4.95
2023-02-23T20:11:31.914Z,4.88
2023-02-23T20:14:01.005Z,4.82
2023-02-23T20:16:32.169Z,4.79
2023-02-23T20:19:00.853Z,4.76
2023-02-23T20:21:30.882Z,4.73
2023-02-23T20:24:01.886Z,4.71
2023-02-23T20:26:34.391Z,4.68
2023-02-23T20:29:04.278Z,4.65
2023-02-23T20:31:35.534Z,4.64
2023-02-23T20:34:05.744Z,4.63
2023-02-23T20:36:34.329Z,4.66
2023-02-23T20:39:02.788Z,4.72
2023-02-23T20:41:32.412Z,4.76
2023-02-23T20:44:02.521Z,4.77
2023-02-23T20:46:31.084Z,4.78
2023-02-23T20:48:59.609Z,4.75
2023-02-23T20:51:27.972Z,4.74
2023-02-23T20:53:56.340Z,4.71
2023-02-23T20:56:25.765Z,4.69
2023-02-23T20:58:54.747Z,4.63
2023-02-23T21:01:26.494Z,4.55
2023-02-23T21:03:55.875Z,4.50
2023-02-23T21:06:24.996Z,4.47
2023-02-23T21:08:56.061Z,4.39
2023-02-23T21:11:27.864Z,4.30
2023-02-23T21:13:56.595Z,4.21
2023-02-23T21:16:25.792Z,4.12
2023-02-23T21:19:04.491Z,4.03
2023-02-23T21:21:40.356Z,3.97
2023-02-23T21:24:09.566Z,3.92
2023-02-23T21:26:38.657Z,3.87
2023-02-23T21:29:12.044Z,3.83
2023-02-23T21:31:44.909Z,3.78
2023-02-23T21:34:15.664Z,3.75
2023-02-23T21:36:44.525Z,3.74
2023-02-23T21:39:12.984Z,3.72
2023-02-23T21:41:41.629Z,3.69
2023-02-23T21:44:10.226Z,3.65
2023-02-23T21:46:40.722Z,3.63
2023-02-23T21:49:10.093Z,3.63
2023-02-23T21:51:39.029Z,3.59
2023-02-23T21:54:07.317Z,3.54
2023-02-23T21:56:37.109Z,3.48
2023-02-23T21:59:08.618Z,3.42
2023-02-23T22:01:38.953Z,3.36
2023-02-23T22:04:09.022Z,3.32
2023-02-23T22:06:40.875Z,3.28
2023-02-23T22:09:11.622Z,3.31
2023-02-23T22:11:42.842Z,3.33
2023-02-23T22:14:11.833Z,3.32
2023-02-23T22:16:43.615Z,3.30
2023-02-23T22:19:12.924Z,3.29
2023-02-23T22:21:42.341Z,3.28
2023-02-23T22:24:11.893Z,3.25
2023-02-23T22:26:47.351Z,3.20
2023-02-23T22:29:16.071Z,3.17
2023-02-23T22:31:44.653Z,3.13
2023-02-23T22:34:13.552Z,3.09
2023-02-23T22:36:41.952Z,3.06
2023-02-23T22:39:10.840Z,3.03
2023-02-23T22:41:45.447Z,3.00
2023-02-23T22:44:17.217Z,2.96
2023-02-23T22:46:48.593Z,2.93
2023-02-23T22:49:20.403Z,2.88
2023-02-23T22:51:50.848Z,2.83
2023-02-23T22:54:20.817Z,2.78
2023-02-23T22:56:49.351Z,2.73
2023-02-23T22:59:20.762Z,2.67
2023-02-23T23:01:50.668Z,2.61
2023-02-23T23:04:22.262Z,2.54
2023-02-23T23:06:51.304Z,2.51
2023-02-23T23:09:21.468Z,2.49
2023-02-23T23:11:54.227Z,2.48
2023-02-23T23:14:23.386Z,2.48
2023-02-23T23:16:51.900Z,2.48
2023-02-23T23:19:24.585Z,2.49
2023-02-23T23:21:57.559Z,2.52
2023-02-23T23:24:26.333Z,2.54
2023-02-23T23:27:00.486Z,2.58
2023-02-23T23:29:32.805Z,2.64
2023-02-23T23:32:02.833Z,2.71
2023-02-23T23:34:33.952Z,2.79
2023-02-23T23:37:03.182Z,2.87
2023-02-23T23:39:31.863Z,2.93
2023-02-23T23:42:02.181Z,3.01
2023-02-23T23:44:30.695Z,3.07
2023-02-23T23:47:00.129Z,3.13
2023-02-23T23:49:28.804Z,3.18
2023-02-23T23:51:57.473Z,3.23
2023-02-23T23:54:27.490Z,3.27
2023-02-23T23:56:56.575Z,3.32
2023-02-23T23:59:27.290Z,3.35
